Time;durP1;ratioP1;P1;durP2;ratioP2;P2;SDS_P1;SDS_P2;PMS_P1;PMS_P2;Temp;Humidity;BMP_temperature;BMP_pressure;BME280_temperature;BME280_humidity;BME280_pressure;Samples;Min_cycle;Max_cycle;Signal;HPM_P1;HPM_P2
2022/07/25 00:03:10;;;;;;;3.95;3.65;;;;;;;;;;8397901;28;20096;-73
2022/07/25 00:07:10;;;;;;;3.42;3.13;;;;;;;;;;8430646;28;20046;-73
2022/07/25 00:11:10;;;;;;;3.40;3.13;;;;;;;;;;8396224;28;20062;-73
2022/07/25 00:15:11;;;;;;;3.80;3.50;;;;;;;;;;8426989;28;20030;-73
2022/07/25 00:19:11;;;;;;;3.58;3.28;;;;;;;;;;8425482;28;20019;-73
2022/07/25 00:23:11;;;;;;;3.77;3.47;;;;;;;;;;8428847;28;20142;-73
2022/07/25 00:27:11;;;;;;;3.50;3.20;;;;;;;;;;8427489;28;20273;-72
2022/07/25 00:31:11;;;;;;;3.53;3.22;;;;;;;;;;8402677;28;20510;-73
2022/07/25 00:35:12;;;;;;;3.40;3.10;;;;;;;;;;8426442;27;20019;-72
2022/07/25 00:39:12;;;;;;;3.88;3.58;;;;;;;;;;8427627;28;20080;-73
2022/07/25 00:43:12;;;;;;;3.90;3.53;;;;;;;;;;8426964;28;20011;-73
2022/07/25 00:47:12;;;;;;;3.40;3.10;;;;;;;;;;8426565;27;20126;-72
2022/07/25 00:51:13;;;;;;;4.23;3.83;;;;;;;;;;8426171;28;20047;-73
2022/07/25 00:55:14;;;;;;;3.78;3.47;;;;;;;;;;8408137;28;20027;-73
2022/07/25 00:59:15;;;;;;;3.90;3.60;;;;;;;;;;8425987;28;20582;-72
2022/07/25 01:03:16;;;;;;;4.15;3.65;;;;;;;;;;8423048;28;20043;-73
2022/07/25 01:07:16;;;;;;;4.10;3.70;;;;;;;;;;8424849;28;20108;-72
2022/07/25 01:11:16;;;;;;;5.30;3.80;;;;;;;;;;8424000;28;20491;-73
2022/07/25 01:15:17;;;;;;;4.00;3.60;;;;;;;;;;8425455;27;20067;-73
2022/07/25 01:19:17;;;;;;;5.07;3.67;;;;;;;;;;8427011;28;20667;-73
2022/07/25 01:23:18;;;;;;;5.22;3.75;;;;;;;;;;8426462;27;20023;-72
2022/07/25 01:27:18;;;;;;;5.80;3.70;;;;;;;;;;8425861;28;20031;-73
2022/07/25 01:31:18;;;;;;;4.00;3.60;;;;;;;;;;8396306;28;20111;-73
2022/07/25 01:35:19;;;;;;;3.97;3.60;;;;;;;;;;8425979;28;20093;-73
2022/07/25 01:39:19;;;;;;;5.03;4.00;;;;;;;;;;8425885;27;20094;-73
2022/07/25 01:43:19;;;;;;;5.10;3.90;;;;;;;;;;8425159;28;20019;-72
2022/07/25 01:47:19;;;;;;;5.03;3.80;;;;;;;;;;8424330;28;20292;-72
2022/07/25 01:51:19;;;;;;;4.20;3.85;;;;;;;;;;8427109;28;20038;-73
2022/07/25 01:55:20;;;;;;;4.43;4.03;;;;;;;;;;8425821;28;20023;-72
2022/07/25 01:59:20;;;;;;;4.60;3.70;;;;;;;;;;8425106;27;20035;-72
2022/07/25 02:03:29;;;;;;;4.43;4.00;;;;;;;;;;8423377;28;20027;-73
2022/07/25 02:07:29;;;;;;;4.70;3.95;;;;;;;;;;8425450;28;20102;-72
2022/07/25 02:11:29;;;;;;;4.47;4.07;;;;;;;;;;8423731;28;20043;-73
2022/07/25 02:15:30;;;;;;;5.03;3.63;;;;;;;;;;8425400;28;20048;-73
2022/07/25 02:19:30;;;;;;;4.88;4.00;;;;;;;;;;8422620;28;20028;-72
2022/07/25 02:23:30;;;;;;;6.70;4.40;;;;;;;;;;8424540;28;20038;-72
2022/07/25 02:27:30;;;;;;;4.63;4.22;;;;;;;;;;8424321;28;20277;-73
2022/07/25 02:31:31;;;;;;;5.50;4.07;;;;;;;;;;8422482;28;20051;-73
2022/07/25 02:35:31;;;;;;;7.38;4.07;;;;;;;;;;8424097;28;20011;-73
2022/07/25 02:39:31;;;;;;;4.97;4.30;;;;;;;;;;8404275;28;20016;-73
2022/07/25 02:43:31;;;;;;;5.80;4.22;;;;;;;;;;8423800;28;20587;-73
2022/07/25 02:47:32;;;;;;;4.82;4.43;;;;;;;;;;8423417;28;20139;-72
2022/07/25 02:51:32;;;;;;;5.30;4.40;;;;;;;;;;8431368;28;20050;-72
2022/07/25 02:55:32;;;;;;;5.60;4.15;;;;;;;;;;8430349;27;20026;-73
2022/07/25 02:59:32;;;;;;;5.45;4.22;;;;;;;;;;8431054;28;20426;-72
2022/07/25 03:03:33;;;;;;;4.70;4.30;;;;;;;;;;8428871;27;20035;-72
2022/07/25 03:07:33;;;;;;;5.33;4.63;;;;;;;;;;8431528;28;20135;-72
2022/07/25 03:11:33;;;;;;;5.82;4.90;;;;;;;;;;8430508;27;20032;-72
2022/07/25 03:15:33;;;;;;;6.18;4.40;;;;;;;;;;8429976;28;20020;-73
2022/07/25 03:19:34;;;;;;;5.65;4.30;;;;;;;;;;8429772;28;20146;-73
2022/07/25 03:23:34;;;;;;;4.60;4.20;;;;;;;;;;8410565;28;20510;-74
2022/07/25 03:27:34;;;;;;;5.72;4.20;;;;;;;;;;8428645;28;21051;-73
2022/07/25 03:31:34;;;;;;;5.13;4.03;;;;;;;;;;8429290;28;20483;-73
2022/07/25 03:35:36;;;;;;;5.20;3.95;;;;;;;;;;8429003;28;20035;-73
2022/07/25 03:39:36;;;;;;;5.03;4.32;;;;;;;;;;8429814;28;20476;-73
2022/07/25 03:43:36;;;;;;;5.22;4.35;;;;;;;;;;8430257;28;20016;-73
2022/07/25 03:47:37;;;;;;;4.90;4.32;;;;;;;;;;8429245;27;20089;-73
2022/07/25 03:51:37;;;;;;;5.82;4.40;;;;;;;;;;8428651;28;20065;-73
2022/07/25 03:55:38;;;;;;;5.32;4.30;;;;;;;;;;8428611;28;20016;-72
2022/07/25 03:59:38;;;;;;;5.03;4.15;;;;;;;;;;8428106;28;20503;-72
2022/07/25 04:03:39;;;;;;;4.15;3.78;;;;;;;;;;8428357;28;20168;-73
2022/07/25 04:07:39;;;;;;;6.32;4.50;;;;;;;;;;8413949;28;20934;-73
2022/07/25 04:11:39;;;;;;;4.43;4.03;;;;;;;;;;8427852;28;20079;-73
2022/07/25 04:15:40;;;;;;;4.60;4.20;;;;;;;;;;8405268;28;20055;-73
2022/07/25 04:19:40;;;;;;;4.63;4.15;;;;;;;;;;8427964;27;20288;-73
2022/07/25 04:23:40;;;;;;;5.63;4.22;;;;;;;;;;8428570;28;20074;-73
2022/07/25 04:27:40;;;;;;;4.35;3.95;;;;;;;;;;8429142;28;20102;-73
2022/07/25 04:31:41;;;;;;;4.70;4.30;;;;;;;;;;8426102;28;20043;-72
2022/07/25 04:35:41;;;;;;;4.70;3.93;;;;;;;;;;8427718;28;20035;-72
2022/07/25 04:39:41;;;;;;;6.13;3.97;;;;;;;;;;8430195;28;20031;-72
2022/07/25 04:43:42;;;;;;;4.30;3.90;;;;;;;;;;8426371;28;20134;-73
2022/07/25 04:47:42;;;;;;;8.07;4.65;;;;;;;;;;8427717;28;20544;-73
2022/07/25 04:51:42;;;;;;;5.65;4.53;;;;;;;;;;8427890;28;20172;-72
2022/07/25 04:55:43;;;;;;;4.68;4.28;;;;;;;;;;8425763;28;20023;-72
2022/07/25 04:59:43;;;;;;;4.30;3.90;;;;;;;;;;8427089;28;20103;-73
2022/07/25 05:03:43;;;;;;;5.10;4.60;;;;;;;;;;8426473;28;20048;-73
2022/07/25 05:07:43;;;;;;;4.97;4.43;;;;;;;;;;8426992;28;20392;-73
2022/07/25 05:11:43;;;;;;;6.18;4.70;;;;;;;;;;8425544;28;21148;-73
2022/07/25 05:15:44;;;;;;;4.72;4.32;;;;;;;;;;8425046;28;20039;-73
2022/07/25 05:19:44;;;;;;;4.68;4.28;;;;;;;;;;8427045;27;20071;-73
2022/07/25 05:23:44;;;;;;;5.37;4.57;;;;;;;;;;8401698;28;20081;-73
2022/07/25 05:27:45;;;;;;;6.47;4.40;;;;;;;;;;8425328;28;20352;-72
2022/07/25 05:31:45;;;;;;;6.50;4.50;;;;;;;;;;8424782;28;20035;-72
2022/07/25 05:35:45;;;;;;;6.20;4.93;;;;;;;;;;8425638;28;20028;-72
2022/07/25 05:39:45;;;;;;;7.55;5.13;;;;;;;;;;8425873;28;20114;-72
2022/07/25 05:43:47;;;;;;;5.88;5.10;;;;;;;;;;8424260;28;20923;-73
2022/07/25 05:47:47;;;;;;;6.78;5.13;;;;;;;;;;8424009;28;20065;-73
2022/07/25 05:51:47;;;;;;;5.22;4.53;;;;;;;;;;8405894;28;20064;-73
2022/07/25 05:55:48;;;;;;;8.35;5.50;;;;;;;;;;8424332;28;20030;-72
2022/07/25 05:59:48;;;;;;;11.52;5.28;;;;;;;;;;8404796;28;20016;-72
2022/07/25 06:03:49;;;;;;;7.60;5.20;;;;;;;;;;8422568;28;20100;-73
2022/07/25 06:07:49;;;;;;;8.48;4.97;;;;;;;;;;8425450;28;20027;-73
2022/07/25 06:11:49;;;;;;;9.27;5.00;;;;;;;;;;8423692;28;20032;-73
2022/07/25 06:15:49;;;;;;;5.55;4.50;;;;;;;;;;8423104;28;20055;-73
2022/07/25 06:19:49;;;;;;;6.85;4.90;;;;;;;;;;8423243;28;20396;-74
2022/07/25 06:23:50;;;;;;;5.80;5.20;;;;;;;;;;8421207;28;20024;-73
2022/07/25 06:27:51;;;;;;;7.82;4.85;;;;;;;;;;8423190;28;20465;-73
2022/07/25 06:31:51;;;;;;;7.45;5.15;;;;;;;;;;8423406;28;20039;-73
2022/07/25 06:35:52;;;;;;;7.50;5.03;;;;;;;;;;8422985;28;20815;-74
2022/07/25 06:39:52;;;;;;;6.47;4.97;;;;;;;;;;8423623;28;20070;-73
2022/07/25 06:43:52;;;;;;;6.93;5.22;;;;;;;;;;8421950;28;20023;-73
2022/07/25 06:47:52;;;;;;;6.50;4.87;;;;;;;;;;8423939;28;20035;-73
2022/07/25 06:51:52;;;;;;;6.03;4.57;;;;;;;;;;8421817;28;20323;-73
2022/07/25 06:55:53;;;;;;;6.27;4.40;;;;;;;;;;8422646;28;20037;-73
2022/07/25 06:59:53;;;;;;;4.97;4.40;;;;;;;;;;8420035;28;20070;-74
2022/07/25 07:03:53;;;;;;;6.05;4.63;;;;;;;;;;8420090;28;20042;-75
2022/07/25 07:07:54;;;;;;;6.85;4.40;;;;;;;;;;8420857;28;20027;-73
2022/07/25 07:11:54;;;;;;;8.90;4.10;;;;;;;;;;8420552;28;20032;-75
2022/07/25 07:15:54;;;;;;;6.82;4.55;;;;;;;;;;8420596;28;20095;-75
2022/07/25 07:19:54;;;;;;;9.13;4.77;;;;;;;;;;8421543;28;20028;-74
2022/07/25 07:23:55;;;;;;;8.75;4.38;;;;;;;;;;8423063;28;20441;-75
2022/07/25 07:27:55;;;;;;;7.50;4.70;;;;;;;;;;8421711;28;20043;-74
2022/07/25 07:31:55;;;;;;;18.73;4.57;;;;;;;;;;8420265;28;20146;-75
2022/07/25 07:35:55;;;;;;;4.40;4.00;;;;;;;;;;8425994;28;20029;-74
2022/07/25 07:39:56;;;;;;;4.73;4.27;;;;;;;;;;8425595;28;20034;-75
2022/07/25 07:43:56;;;;;;;4.47;4.07;;;;;;;;;;8426082;28;20747;-74
2022/07/25 07:47:56;;;;;;;4.25;3.85;;;;;;;;;;8427024;28;20553;-74
2022/07/25 07:51:56;;;;;;;4.47;4.07;;;;;;;;;;8405896;28;20024;-74
2022/07/25 07:55:56;;;;;;;4.70;3.80;;;;;;;;;;8427830;28;20058;-75
2022/07/25 07:59:58;;;;;;;4.90;3.70;;;;;;;;;;8426950;28;20564;-74
2022/07/25 08:03:58;;;;;;;3.67;3.38;;;;;;;;;;8425724;28;20028;-74
2022/07/25 08:07:59;;;;;;;4.68;3.50;;;;;;;;;;8421305;28;20480;-74
2022/07/25 08:11:59;;;;;;;3.87;3.53;;;;;;;;;;8426301;27;20031;-73
2022/07/25 08:16:00;;;;;;;3.95;3.50;;;;;;;;;;8427627;28;20078;-74
2022/07/25 08:20:05;;;;;;;;;;;;;;;;;;8425028;28;20106;-73
2022/07/25 08:24:06;;;;;;;3.97;3.67;;;;;;;;;;8426256;28;19915;-73
2022/07/25 08:28:06;;;;;;;4.57;3.40;;;;;;;;;;8425173;28;20027;-74
2022/07/25 08:32:06;;;;;;;7.23;3.33;;;;;;;;;;8424495;27;20859;-74
2022/07/25 08:36:09;;;;;;;5.43;3.72;;;;;;;;;;8424039;28;20281;-73
2022/07/25 08:40:11;;;;;;;5.40;3.90;;;;;;;;;;8421315;28;20073;-72
2022/07/25 08:44:12;;;;;;;3.95;3.65;;;;;;;;;;8422907;28;20877;-73
2022/07/25 08:48:15;;;;;;;6.20;3.72;;;;;;;;;;8421448;28;20061;-74
2022/07/25 08:52:16;;;;;;;4.00;3.70;;;;;;;;;;8420228;27;20096;-74
2022/07/25 08:56:17;;;;;;;4.05;3.63;;;;;;;;;;8424557;28;20476;-74
2022/07/25 09:00:18;;;;;;;6.35;3.60;;;;;;;;;;8420559;28;20027;-74
2022/07/25 09:04:18;;;;;;;3.90;3.60;;;;;;;;;;8424610;28;20111;-73
2022/07/25 09:08:19;;;;;;;5.17;3.80;;;;;;;;;;8423933;27;20027;-73
2022/07/25 09:12:24;;;;;;;4.13;3.83;;;;;;;;;;8405056;28;21238;-73
2022/07/25 09:16:28;;;;;;;3.67;3.38;;;;;;;;;;8423611;28;20260;-73
2022/07/25 09:20:48;;;;;;;5.15;3.50;;;;;;;;;;8421684;28;20417;-74
2022/07/25 09:24:48;;;;;;;4.13;3.73;;;;;;;;;;8424482;28;20108;-74
2022/07/25 09:28:51;;;;;;;6.40;3.40;;;;;;;;;;8423882;28;20766;-74
2022/07/25 09:33:00;;;;;;;3.80;3.50;;;;;;;;;;8423251;27;20044;-74
2022/07/25 09:37:01;;;;;;;4.72;3.80;;;;;;;;;;8423446;28;20030;-74
2022/07/25 09:41:02;;;;;;;4.57;3.97;;;;;;;;;;8423158;28;20183;-74
2022/07/25 09:45:02;;;;;;;;;;;;;;;;;;8424173;28;20202;-74
2022/07/25 09:49:02;;;;;;;4.20;3.77;;;;;;;;;;8424957;28;19922;-73
2022/07/25 09:53:02;;;;;;;9.02;3.60;;;;;;;;;;8418598;28;20769;-73
2022/07/25 09:57:03;;;;;;;4.10;3.70;;;;;;;;;;8422541;27;20819;-73
2022/07/25 10:01:04;;;;;;;3.45;3.15;;;;;;;;;;8400898;28;20028;-74
2022/07/25 10:05:27;;;;;;;3.60;3.30;;;;;;;;;;8420714;28;20024;-74
2022/07/25 10:09:28;;;;;;;5.93;3.90;;;;;;;;;;8392205;28;20074;-73
2022/07/25 10:13:28;;;;;;;;;;;;;;;;;;8422595;28;20692;-73
2022/07/25 10:17:28;;;;;;;3.55;3.25;;;;;;;;;;8420560;27;20047;-74
2022/07/25 10:21:28;;;;;;;3.67;3.08;;;;;;;;;;8421105;28;20137;-73
2022/07/25 10:25:28;;;;;;;;;;;;;;;;;;8404656;28;20027;-73
2022/07/25 10:29:33;;;;;;;6.07;3.38;;;;;;;;;;8403619;28;19919;-73
2022/07/25 10:33:39;;;;;;;3.97;3.30;;;;;;;;;;8413514;28;20841;-73
2022/07/25 10:37:39;;;;;;;3.67;3.22;;;;;;;;;;8422513;28;20177;-74
2022/07/25 10:41:41;;;;;;;3.90;3.53;;;;;;;;;;8418868;28;20121;-73
2022/07/25 10:45:41;;;;;;;3.65;3.33;;;;;;;;;;8417540;28;20717;-72
2022/07/25 10:49:42;;;;;;;3.50;3.20;;;;;;;;;;8420640;28;20072;-72
2022/07/25 10:53:43;;;;;;;3.30;3.00;;;;;;;;;;8399898;28;20020;-72
2022/07/25 10:57:43;;;;;;;;;;;;;;;;;;8420378;28;21026;-72
2022/07/25 11:01:49;;;;;;;3.70;3.40;;;;;;;;;;8418697;28;19927;-72
2022/07/25 11:05:53;;;;;;;4.32;3.53;;;;;;;;;;8422945;28;20080;-73
2022/07/25 11:09:57;;;;;;;5.65;3.47;;;;;;;;;;8423041;28;20039;-72
2022/07/25 11:13:58;;;;;;;5.85;3.33;;;;;;;;;;8428597;27;20108;-72
2022/07/25 11:17:58;;;;;;;6.70;3.50;;;;;;;;;;8399274;27;20039;-72
2022/07/25 11:21:59;;;;;;;3.75;3.45;;;;;;;;;;8427055;28;20138;-71
2022/07/25 11:26:07;;;;;;;5.15;3.30;;;;;;;;;;8428143;28;20395;-72
2022/07/25 11:30:14;;;;;;;3.90;3.50;;;;;;;;;;8403621;27;20028;-74
2022/07/25 11:34:14;;;;;;;6.95;3.47;;;;;;;;;;8398482;27;20422;-72
2022/07/25 11:38:14;;;;;;;3.63;3.30;;;;;;;;;;8425457;27;20054;-73
2022/07/25 11:42:16;;;;;;;6.32;3.60;;;;;;;;;;8427466;28;20078;-73
2022/07/25 11:46:17;;;;;;;6.95;3.42;;;;;;;;;;8427216;28;20035;-73
2022/07/25 11:50:27;;;;;;;5.40;3.42;;;;;;;;;;8423433;28;20038;-73
2022/07/25 11:54:27;;;;;;;6.63;3.75;;;;;;;;;;8426455;28;20020;-73
2022/07/25 11:58:28;;;;;;;7.65;3.50;;;;;;;;;;8428094;28;20020;-73
2022/07/25 12:02:33;;;;;;;4.90;3.50;;;;;;;;;;8426317;28;20057;-73
2022/07/25 12:06:34;;;;;;;10.32;3.80;;;;;;;;;;8426253;28;20046;-72
2022/07/25 12:10:35;;;;;;;7.53;3.60;;;;;;;;;;8424065;27;21009;-74
2022/07/25 12:14:42;;;;;;;8.68;3.80;;;;;;;;;;8407254;28;20031;-73
2022/07/25 12:18:42;;;;;;;7.00;3.85;;;;;;;;;;8427839;28;20027;-73
2022/07/25 12:22:43;;;;;;;5.72;3.70;;;;;;;;;;8407693;27;20039;-73
2022/07/25 12:26:43;;;;;;;6.87;3.80;;;;;;;;;;8425153;28;20031;-72
2022/07/25 12:30:43;;;;;;;6.22;3.95;;;;;;;;;;8426857;28;20484;-72
2022/07/25 12:34:45;;;;;;;3.70;3.40;;;;;;;;;;8426367;27;20031;-72
2022/07/25 12:38:45;;;;;;;4.32;3.72;;;;;;;;;;8426996;28;20027;-72
2022/07/25 12:42:45;;;;;;;7.05;3.72;;;;;;;;;;8424162;28;20019;-72
2022/07/25 12:46:46;;;;;;;4.15;3.78;;;;;;;;;;8425797;28;20609;-73
2022/07/25 12:50:47;;;;;;;4.15;3.75;;;;;;;;;;8424064;27;20126;-73
2022/07/25 12:54:47;;;;;;;6.90;3.73;;;;;;;;;;8426412;28;20983;-73
2022/07/25 12:58:49;;;;;;;7.80;3.87;;;;;;;;;;8424162;28;20038;-73
2022/07/25 13:02:50;;;;;;;4.10;3.70;;;;;;;;;;8425718;28;20040;-72
2022/07/25 13:06:54;;;;;;;5.32;3.35;;;;;;;;;;8420232;27;20740;-73
2022/07/25 13:10:54;;;;;;;7.38;3.60;;;;;;;;;;8421221;28;20027;-73
2022/07/25 13:14:55;;;;;;;6.78;3.60;;;;;;;;;;8421081;28;20030;-73
2022/07/25 13:18:55;;;;;;;5.00;3.55;;;;;;;;;;8422101;28;20147;-73
2022/07/25 13:22:56;;;;;;;6.30;3.85;;;;;;;;;;8401663;28;20532;-73
2022/07/25 13:26:56;;;;;;;6.40;3.53;;;;;;;;;;8423960;28;20031;-73
2022/07/25 13:30:56;;;;;;;8.33;3.80;;;;;;;;;;8421082;27;20039;-73
2022/07/25 13:34:57;;;;;;;6.60;4.05;;;;;;;;;;8420608;28;20035;-74
2022/07/25 13:38:57;;;;;;;5.65;3.70;;;;;;;;;;8422368;27;20493;-73
2022/07/25 13:42:57;;;;;;;7.27;3.40;;;;;;;;;;8420769;27;20054;-72
2022/07/25 13:46:57;;;;;;;6.53;3.70;;;;;;;;;;8420915;27;20032;-73
2022/07/25 13:50:58;;;;;;;3.95;3.50;;;;;;;;;;8419424;28;20034;-73
2022/07/25 13:54:58;;;;;;;6.73;3.87;;;;;;;;;;8422813;28;20038;-73
2022/07/25 13:58:58;;;;;;;9.15;3.88;;;;;;;;;;8419750;27;20146;-73
2022/07/25 14:02:58;;;;;;;6.13;3.63;;;;;;;;;;8421720;28;20138;-73
2022/07/25 14:06:59;;;;;;;4.15;3.60;;;;;;;;;;8421355;28;20188;-73
2022/07/25 14:10:59;;;;;;;9.30;3.77;;;;;;;;;;8416497;28;20058;-72
2022/07/25 14:14:59;;;;;;;9.67;4.17;;;;;;;;;;8400391;27;20031;-72
2022/07/25 14:19:00;;;;;;;7.63;3.97;;;;;;;;;;8404337;28;20024;-73
2022/07/25 14:23:01;;;;;;;8.02;3.70;;;;;;;;;;8420218;28;20023;-72
2022/07/25 14:27:01;;;;;;;4.70;4.15;;;;;;;;;;8401583;28;20536;-73
2022/07/25 14:31:01;;;;;;;10.23;4.03;;;;;;;;;;8420760;28;20035;-73
2022/07/25 14:35:04;;;;;;;6.27;4.10;;;;;;;;;;8422396;28;20068;-73
2022/07/25 14:39:05;;;;;;;5.65;3.80;;;;;;;;;;8422778;28;20035;-73
2022/07/25 14:43:05;;;;;;;5.63;3.83;;;;;;;;;;8402497;28;20770;-73
2022/07/25 14:47:06;;;;;;;9.40;4.10;;;;;;;;;;8423896;28;20099;-75
2022/07/25 14:51:06;;;;;;;7.53;3.90;;;;;;;;;;8422975;28;20028;-73
2022/07/25 14:55:07;;;;;;;11.20;3.77;;;;;;;;;;8424128;28;20016;-73
2022/07/25 14:59:07;;;;;;;8.47;3.67;;;;;;;;;;8422963;28;20115;-73
2022/07/25 15:03:08;;;;;;;7.87;4.10;;;;;;;;;;8422453;28;20055;-73
2022/07/25 15:07:08;;;;;;;6.97;3.77;;;;;;;;;;8422489;28;20051;-73
2022/07/25 15:11:09;;;;;;;6.20;3.60;;;;;;;;;;8423262;28;20032;-72
2022/07/25 15:15:10;;;;;;;6.53;3.50;;;;;;;;;;8422253;28;20043;-73
2022/07/25 15:19:10;;;;;;;6.00;3.63;;;;;;;;;;8412714;28;20076;-72
2022/07/25 15:23:10;;;;;;;8.23;3.83;;;;;;;;;;8423479;28;20027;-72
2022/07/25 15:27:11;;;;;;;7.97;3.83;;;;;;;;;;8404507;28;20051;-73
2022/07/25 15:31:11;;;;;;;7.07;3.60;;;;;;;;;;8421958;28;20047;-73
2022/07/25 15:35:11;;;;;;;12.52;3.90;;;;;;;;;;8420955;28;20023;-73
2022/07/25 15:39:11;;;;;;;14.65;3.90;;;;;;;;;;8422177;28;20836;-72
2022/07/25 15:43:11;;;;;;;9.75;4.15;;;;;;;;;;8421176;28;20031;-72
2022/07/25 15:47:12;;;;;;;7.68;4.07;;;;;;;;;;8420225;28;20062;-72
2022/07/25 15:51:14;;;;;;;7.45;3.63;;;;;;;;;;8422432;28;20024;-73
2022/07/25 15:55:14;;;;;;;9.88;3.45;;;;;;;;;;8400506;28;20016;-72
2022/07/25 15:59:14;;;;;;;12.57;3.65;;;;;;;;;;8427234;28;20737;-72
2022/07/25 16:03:14;;;;;;;8.48;3.53;;;;;;;;;;8427522;27;20487;-72
2022/07/25 16:07:15;;;;;;;10.00;3.35;;;;;;;;;;8427985;28;20016;-72
2022/07/25 16:11:15;;;;;;;8.00;3.07;;;;;;;;;;8426481;28;20028;-72
2022/07/25 16:15:15;;;;;;;8.32;3.30;;;;;;;;;;8425112;28;21311;-73
2022/07/25 16:19:15;;;;;;;8.63;2.85;;;;;;;;;;8426694;28;20486;-72
2022/07/25 16:23:15;;;;;;;12.02;3.03;;;;;;;;;;8426927;27;20055;-72
2022/07/25 16:27:16;;;;;;;14.17;2.70;;;;;;;;;;8425234;27;20050;-74
2022/07/25 16:31:16;;;;;;;6.30;3.03;;;;;;;;;;8423761;28;20188;-72
2022/07/25 16:35:16;;;;;;;5.38;2.40;;;;;;;;;;8426698;27;20029;-72
2022/07/25 16:39:17;;;;;;;7.28;2.33;;;;;;;;;;8423592;27;20110;-72
2022/07/25 16:43:17;;;;;;;7.68;2.33;;;;;;;;;;8424771;28;20015;-72
2022/07/25 16:47:18;;;;;;;13.82;2.53;;;;;;;;;;8421627;28;20038;-72
2022/07/25 16:51:18;;;;;;;9.88;2.25;;;;;;;;;;8422236;27;20034;-72
2022/07/25 16:55:18;;;;;;;8.93;2.60;;;;;;;;;;8423559;28;21042;-72
2022/07/25 16:59:18;;;;;;;7.72;2.20;;;;;;;;;;8423810;27;20095;-72
2022/07/25 17:03:19;;;;;;;13.13;2.15;;;;;;;;;;8421303;27;20027;-72
2022/07/25 17:07:19;;;;;;;6.13;1.88;;;;;;;;;;8421324;28;20034;-73
2022/07/25 17:11:20;;;;;;;6.07;2.10;;;;;;;;;;8418585;27;20078;-72
2022/07/25 17:15:20;;;;;;;7.33;1.60;;;;;;;;;;8420972;28;20034;-73
2022/07/25 17:19:20;;;;;;;6.23;1.60;;;;;;;;;;8422378;28;20411;-72
2022/07/25 17:23:21;;;;;;;7.45;1.63;;;;;;;;;;8419622;28;20269;-72
2022/07/25 17:27:21;;;;;;;5.90;1.60;;;;;;;;;;8418632;28;20078;-72
2022/07/25 17:31:23;;;;;;;9.57;1.95;;;;;;;;;;8395465;28;20101;-72
2022/07/25 17:35:23;;;;;;;9.98;1.70;;;;;;;;;;8422078;27;20033;-73
2022/07/25 17:39:23;;;;;;;6.60;1.83;;;;;;;;;;8423385;28;20047;-72
2022/07/25 17:43:24;;;;;;;4.17;1.50;;;;;;;;;;8421974;27;20018;-71
2022/07/25 17:47:24;;;;;;;6.75;1.55;;;;;;;;;;8417910;28;20028;-72
2022/07/25 17:51:24;;;;;;;6.43;1.52;;;;;;;;;;8419378;28;20019;-72
2022/07/25 17:55:25;;;;;;;6.22;1.40;;;;;;;;;;8398189;28;20041;-74
2022/07/25 17:59:26;;;;;;;3.00;1.45;;;;;;;;;;8419597;27;20019;-73
2022/07/25 18:03:26;;;;;;;4.13;1.30;;;;;;;;;;8419563;27;20035;-73
2022/07/25 18:07:26;;;;;;;5.60;1.50;;;;;;;;;;8419763;27;20064;-72
2022/07/25 18:11:27;;;;;;;3.23;1.30;;;;;;;;;;8398490;28;20027;-72
2022/07/25 18:15:27;;;;;;;4.25;2.00;;;;;;;;;;8419790;28;20376;-72
2022/07/25 18:19:27;;;;;;;4.57;1.70;;;;;;;;;;8419648;28;20077;-72
2022/07/25 18:23:29;;;;;;;5.05;1.52;;;;;;;;;;8419108;28;20886;-72
2022/07/25 18:27:29;;;;;;;6.23;1.80;;;;;;;;;;8396408;28;20019;-72
2022/07/25 18:31:30;;;;;;;10.23;1.50;;;;;;;;;;8416018;28;20811;-72
2022/07/25 18:35:30;;;;;;;5.93;1.50;;;;;;;;;;8417435;28;20278;-72
2022/07/25 18:39:30;;;;;;;6.72;1.50;;;;;;;;;;8417944;28;20035;-72
2022/07/25 18:43:30;;;;;;;8.50;1.73;;;;;;;;;;8420012;28;20133;-72
2022/07/25 18:47:32;;;;;;;6.57;1.40;;;;;;;;;;8419061;28;20150;-72
2022/07/25 18:51:32;;;;;;;2.30;1.23;;;;;;;;;;8420068;28;20937;-71
2022/07/25 18:55:33;;;;;;;4.53;1.40;;;;;;;;;;8402129;28;20113;-72
2022/07/25 18:59:34;;;;;;;3.10;1.17;;;;;;;;;;8420268;28;20826;-72
2022/07/25 19:03:35;;;;;;;4.15;1.38;;;;;;;;;;8419239;28;20599;-72
2022/07/25 19:07:35;;;;;;;2.03;1.17;;;;;;;;;;8400175;28;20128;-72
2022/07/25 19:11:35;;;;;;;6.47;1.00;;;;;;;;;;8419033;28;20711;-71
2022/07/25 19:15:36;;;;;;;1.85;0.95;;;;;;;;;;8399751;28;20257;-72
2022/07/25 19:19:36;;;;;;;5.22;1.13;;;;;;;;;;8419618;28;20020;-73
2022/07/25 19:23:36;;;;;;;0.93;0.82;;;;;;;;;;8415898;28;20032;-73
2022/07/25 19:27:37;;;;;;;3.05;1.10;;;;;;;;;;8420024;28;20032;-73
2022/07/25 19:31:38;;;;;;;3.25;1.17;;;;;;;;;;8421726;28;20097;-73
2022/07/25 19:35:38;;;;;;;4.17;1.33;;;;;;;;;;8424516;28;20880;-72
2022/07/25 19:39:38;;;;;;;1.05;1.05;;;;;;;;;;8405711;28;20434;-72
2022/07/25 19:43:38;;;;;;;3.50;1.30;;;;;;;;;;8423913;27;20068;-71
2022/07/25 19:47:39;;;;;;;2.28;1.27;;;;;;;;;;8422985;28;20034;-72
2022/07/25 19:51:39;;;;;;;2.33;1.00;;;;;;;;;;8426177;27;20160;-71
2022/07/25 19:55:39;;;;;;;2.73;1.40;;;;;;;;;;8402312;28;20020;-71
2022/07/25 19:59:40;;;;;;;4.70;1.40;;;;;;;;;;8424892;28;20285;-71
2022/07/25 20:03:40;;;;;;;1.50;1.40;;;;;;;;;;8424336;27;20040;-72
2022/07/25 20:07:40;;;;;;;3.42;1.10;;;;;;;;;;8425687;27;20031;-70
2022/07/25 20:11:41;;;;;;;3.92;1.10;;;;;;;;;;8423015;28;20027;-72
2022/07/25 20:15:41;;;;;;;2.03;1.10;;;;;;;;;;8424170;28;20063;-72
2022/07/25 20:19:42;;;;;;;3.50;1.20;;;;;;;;;;8422550;28;20543;-71
2022/07/25 20:23:42;;;;;;;3.53;1.10;;;;;;;;;;8425543;27;20395;-72
2022/07/25 20:27:42;;;;;;;2.75;1.17;;;;;;;;;;8423251;28;20273;-72
2022/07/25 20:31:43;;;;;;;5.93;1.20;;;;;;;;;;8423515;27;20046;-72
2022/07/25 20:35:45;;;;;;;2.40;1.30;;;;;;;;;;8424006;27;20021;-72
2022/07/25 20:39:45;;;;;;;2.92;1.00;;;;;;;;;;8424605;27;20089;-72
2022/07/25 20:43:45;;;;;;;3.83;1.20;;;;;;;;;;8420699;28;20024;-72
2022/07/25 20:47:45;;;;;;;2.40;1.00;;;;;;;;;;8423769;28;20028;-72
2022/07/25 20:51:47;;;;;;;4.00;1.30;;;;;;;;;;8420488;28;20118;-72
2022/07/25 20:55:48;;;;;;;2.90;1.10;;;;;;;;;;8422972;28;20030;-73
2022/07/25 20:59:48;;;;;;;2.28;1.10;;;;;;;;;;8421728;28;20062;-73
2022/07/25 21:03:48;;;;;;;3.33;1.00;;;;;;;;;;8420196;28;20028;-72
2022/07/25 21:07:49;;;;;;;3.23;1.20;;;;;;;;;;8423245;28;20026;-72
2022/07/25 21:11:49;;;;;;;3.75;1.30;;;;;;;;;;8421878;28;20030;-72
2022/07/25 21:15:49;;;;;;;6.27;1.30;;;;;;;;;;8421230;28;20794;-73
2022/07/25 21:19:50;;;;;;;1.20;1.10;;;;;;;;;;8418866;27;20049;-72
2022/07/25 21:23:50;;;;;;;5.67;1.40;;;;;;;;;;8421650;28;20391;-72
2022/07/25 21:27:50;;;;;;;2.17;1.20;;;;;;;;;;8421224;27;20122;-73
2022/07/25 21:31:51;;;;;;;2.95;1.10;;;;;;;;;;8420178;27;20039;-72
2022/07/25 21:35:51;;;;;;;1.48;1.10;;;;;;;;;;8397772;28;20024;-72
2022/07/25 21:39:51;;;;;;;1.70;1.20;;;;;;;;;;8423155;28;20039;-72
2022/07/25 21:43:51;;;;;;;2.40;1.07;;;;;;;;;;8422452;27;20119;-72
2022/07/25 21:47:52;;;;;;;4.55;1.40;;;;;;;;;;8423325;28;20086;-73
2022/07/25 21:51:52;;;;;;;3.40;1.50;;;;;;;;;;8424021;27;20058;-73
2022/07/25 21:55:52;;;;;;;3.83;1.43;;;;;;;;;;8422875;28;20023;-72
2022/07/25 21:59:53;;;;;;;1.20;1.10;;;;;;;;;;8425032;28;20034;-72
2022/07/25 22:03:53;;;;;;;7.23;1.30;;;;;;;;;;8425504;28;20255;-74
2022/07/25 22:07:54;;;;;;;2.45;1.38;;;;;;;;;;8426237;28;20023;-72
2022/07/25 22:11:55;;;;;;;3.13;1.03;;;;;;;;;;8424472;28;20033;-72
2022/07/25 22:15:55;;;;;;;1.95;1.23;;;;;;;;;;8425071;28;20774;-72
2022/07/25 22:19:55;;;;;;;3.40;1.40;;;;;;;;;;8423405;28;20960;-71
2022/07/25 22:23:55;;;;;;;5.15;1.20;;;;;;;;;;8425052;28;20020;-72
2022/07/25 22:27:55;;;;;;;5.55;1.40;;;;;;;;;;8425617;28;20069;-72
2022/07/25 22:31:56;;;;;;;5.50;1.30;;;;;;;;;;8423532;28;20036;-72
2022/07/25 22:35:56;;;;;;;4.32;1.38;;;;;;;;;;8425691;28;20127;-72
2022/07/25 22:39:56;;;;;;;2.85;1.30;;;;;;;;;;8425539;28;20028;-72
2022/07/25 22:43:57;;;;;;;1.67;1.10;;;;;;;;;;8404483;28;20023;-72
2022/07/25 22:47:57;;;;;;;1.08;1.05;;;;;;;;;;8424464;28;20123;-72
2022/07/25 22:51:57;;;;;;;2.38;1.20;;;;;;;;;;8425493;28;20036;-72
2022/07/25 22:55:57;;;;;;;4.87;1.20;;;;;;;;;;8423977;28;20027;-72
2022/07/25 22:59:58;;;;;;;1.30;1.17;;;;;;;;;;8425255;28;20030;-72
2022/07/25 23:03:59;;;;;;;1.67;1.20;;;;;;;;;;8424213;28;20039;-72
2022/07/25 23:07:59;;;;;;;3.45;1.33;;;;;;;;;;8428911;28;20215;-72
2022/07/25 23:12:00;;;;;;;3.03;1.47;;;;;;;;;;8430506;28;20028;-72
2022/07/25 23:16:01;;;;;;;2.42;1.10;;;;;;;;;;8430103;28;20592;-72
2022/07/25 23:20:01;;;;;;;2.60;1.35;;;;;;;;;;8430985;28;20835;-71
2022/07/25 23:24:01;;;;;;;4.20;1.17;;;;;;;;;;8430811;28;20015;-71
2022/07/25 23:28:01;;;;;;;4.70;1.40;;;;;;;;;;8430888;28;20011;-72
2022/07/25 23:32:02;;;;;;;1.23;0.95;;;;;;;;;;8430577;28;20067;-72
2022/07/25 23:36:02;;;;;;;2.10;1.30;;;;;;;;;;8432255;28;20035;-72
2022/07/25 23:40:03;;;;;;;2.43;1.20;;;;;;;;;;8430245;27;20034;-72
2022/07/25 23:44:03;;;;;;;3.85;1.10;;;;;;;;;;8431448;27;21087;-72
2022/07/25 23:48:04;;;;;;;1.33;1.10;;;;;;;;;;8411162;28;20361;-72
2022/07/25 23:52:04;;;;;;;1.67;1.20;;;;;;;;;;8429786;28;20969;-72
2022/07/25 23:56:04;;;;;;;1.55;1.25;;;;;;;;;;8430756;28;20887;-72
